createdAt,value
2023-03-17T00:00:17.186Z,621.00
2023-03-17T00:01:17.171Z,627.00
2023-03-17T00:02:17.216Z,626.00
2023-03-17T00:03:17.125Z,619.00
2023-03-17T00:04:17.095Z,620.00
2023-03-17T00:05:17.060Z,620.00
2023-03-17T00:06:17.026Z,622.00
2023-03-17T00:07:17.039Z,624.00
2023-03-17T00:08:16.980Z,625.00
2023-03-17T00:09:16.972Z,624.00
2023-03-17T00:10:16.937Z,624.00
2023-03-17T00:11:16.900Z,624.00
2023-03-17T00:12:16.943Z,626.00
2023-03-17T00:13:16.870Z,623.00
2023-03-17T00:14:16.863Z,621.00
2023-03-17T00:15:16.810Z,616.00
2023-03-17T00:16:16.982Z,625.00
2023-03-17T00:17:16.795Z,625.00
2023-03-17T00:18:16.751Z,625.00
2023-03-17T00:19:16.734Z,625.00
2023-03-17T00:20:16.713Z,625.00
2023-03-17T00:21:16.684Z,625.00
2023-03-17T00:22:16.737Z,625.00
2023-03-17T00:23:16.648Z,621.00
2023-03-17T00:24:16.635Z,624.00
2023-03-17T00:25:16.613Z,624.00
2023-03-17T00:26:16.614Z,622.00
2023-03-17T00:27:16.581Z,620.00
2023-03-17T00:28:16.549Z,623.00
2023-03-17T00:29:16.518Z,620.00
2023-03-17T00:30:16.507Z,622.00
2023-03-17T00:31:16.613Z,621.00
2023-03-17T00:32:16.491Z,620.00
2023-03-17T00:33:16.455Z,620.00
2023-03-17T00:34:16.425Z,621.00
2023-03-17T00:35:16.415Z,621.00
2023-03-17T00:36:16.376Z,618.00
2023-03-17T00:37:16.425Z,623.00
2023-03-17T00:38:16.350Z,616.00
2023-03-17T00:39:16.353Z,617.00
2023-03-17T00:40:16.337Z,618.00
2023-03-17T00:41:16.293Z,616.00
2023-03-17T00:42:16.272Z,617.00
2023-03-17T00:43:16.267Z,623.00
2023-03-17T00:44:16.209Z,623.00
2023-03-17T00:45:16.190Z,619.00
2023-03-17T00:46:16.214Z,623.00
2023-03-17T00:47:16.176Z,623.00
2023-03-17T00:48:16.107Z,623.00
2023-03-17T00:49:17.748Z,623.00
2023-03-17T00:50:16.094Z,623.00
2023-03-17T00:51:16.028Z,620.00
2023-03-17T00:52:16.064Z,621.00
2023-03-17T00:53:15.998Z,616.00
2023-03-17T00:54:15.997Z,619.00
2023-03-17T00:55:15.955Z,620.00
2023-03-17T00:57:15.934Z,620.00
2023-03-17T00:58:30.957Z,622.00
2023-03-17T00:59:18.170Z,621.00
2023-03-17T01:00:15.888Z,621.00
2023-03-17T01:01:16.021Z,623.00
2023-03-17T01:02:15.867Z,624.00
2023-03-17T01:03:15.792Z,626.00
2023-03-17T01:04:15.828Z,624.00
2023-03-17T01:05:15.741Z,623.00
2023-03-17T01:06:15.725Z,618.00
2023-03-17T01:07:15.692Z,620.00
2023-03-17T01:08:15.743Z,620.00
2023-03-17T01:09:15.681Z,615.00
2023-03-17T01:10:15.649Z,620.00
2023-03-17T01:11:15.605Z,616.00
2023-03-17T01:12:15.578Z,616.00
2023-03-17T01:13:15.583Z,615.00
2023-03-17T01:14:15.549Z,616.00
2023-03-17T01:15:15.515Z,613.00
2023-03-17T01:16:15.756Z,610.00
2023-03-17T01:17:15.507Z,615.00
2023-03-17T01:18:15.525Z,615.00
2023-03-17T01:19:15.453Z,616.00
2023-03-17T01:20:15.458Z,616.00
2023-03-17T01:21:15.417Z,616.00
2023-03-17T01:22:15.381Z,616.00
2023-03-17T01:23:15.365Z,616.00
2023-03-17T01:24:15.336Z,616.00
2023-03-17T01:25:15.307Z,615.00
2023-03-17T01:26:15.320Z,616.00
2023-03-17T01:27:15.262Z,612.00
2023-03-17T01:28:15.254Z,613.00
2023-03-17T01:29:15.238Z,609.00
2023-03-17T01:30:15.230Z,609.00
2023-03-17T01:31:15.222Z,612.00
2023-03-17T01:32:15.156Z,612.00
2023-03-17T01:33:16.839Z,612.00
2023-03-17T01:34:15.104Z,613.00
2023-03-17T01:35:15.109Z,612.00
2023-03-17T01:36:15.061Z,610.00
2023-03-17T01:37:15.048Z,610.00
2023-03-17T01:38:15.080Z,620.00
2023-03-17T01:39:15.004Z,614.00
2023-03-17T01:40:14.977Z,613.00
2023-03-17T01:41:14.971Z,611.00
2023-03-17T01:42:14.936Z,610.00
2023-03-17T01:43:15.446Z,609.00
2023-03-17T01:44:14.891Z,606.00
2023-03-17T01:45:14.876Z,610.00
2023-03-17T01:46:14.874Z,610.00
2023-03-17T01:47:14.838Z,611.00
2023-03-17T01:48:14.819Z,606.00
2023-03-17T01:49:14.772Z,607.00
2023-03-17T01:50:14.782Z,610.00
2023-03-17T01:51:14.744Z,609.00
2023-03-17T01:52:14.728Z,604.00
2023-03-17T01:53:14.747Z,609.00
2023-03-17T01:54:14.739Z,601.00
2023-03-17T01:55:14.658Z,605.00
2023-03-17T01:56:14.650Z,607.00
2023-03-17T01:57:14.627Z,605.00
2023-03-17T01:58:14.634Z,606.00
2023-03-17T01:59:14.565Z,605.00
2023-03-17T02:00:14.566Z,601.00
2023-03-17T02:01:14.554Z,605.00
2023-03-17T02:02:14.491Z,603.00
2023-03-17T02:03:14.462Z,604.00
2023-03-17T02:04:14.546Z,604.00
2023-03-17T02:05:14.468Z,603.00
2023-03-17T02:06:14.390Z,600.00
2023-03-17T02:07:14.360Z,603.00
2023-03-17T02:08:14.361Z,601.00
2023-03-17T02:09:14.331Z,604.00
2023-03-17T02:10:14.347Z,602.00
2023-03-17T02:11:14.304Z,598.00
2023-03-17T02:12:14.268Z,597.00
2023-03-17T02:13:14.312Z,603.00
2023-03-17T02:14:14.278Z,597.00
2023-03-17T02:15:14.237Z,599.00
2023-03-17T02:16:14.213Z,599.00
2023-03-17T02:17:14.175Z,604.00
2023-03-17T02:18:14.197Z,598.00
2023-03-17T02:19:14.144Z,600.00
2023-03-17T02:20:14.115Z,599.00
2023-03-17T02:21:14.104Z,596.00
2023-03-17T02:22:14.073Z,598.00
2023-03-17T02:23:14.063Z,594.00
2023-03-17T02:24:14.044Z,603.00
2023-03-17T02:25:14.024Z,597.00
2023-03-17T02:26:14.024Z,600.00
2023-03-17T02:27:13.979Z,596.00
2023-03-17T02:28:13.952Z,597.00
2023-03-17T02:29:13.936Z,592.00
2023-03-17T02:30:13.888Z,595.00
2023-03-17T02:31:13.923Z,596.00
2023-03-17T02:32:13.872Z,591.00
2023-03-17T02:33:13.841Z,584.00
2023-03-17T02:34:13.809Z,576.00
2023-03-17T02:35:13.804Z,557.00
2023-03-17T02:36:13.842Z,534.00
2023-03-17T02:37:13.752Z,528.00
2023-03-17T02:38:13.744Z,472.00
2023-03-17T02:39:13.760Z,408.00
2023-03-17T02:40:13.685Z,400.00
2023-03-17T02:41:13.688Z,400.00
2023-03-17T02:42:13.653Z,400.00
2023-03-17T02:43:13.655Z,400.00
2023-03-17T02:44:13.637Z,400.00
2023-03-17T02:45:13.613Z,400.00
2023-03-17T02:46:13.649Z,400.00
2023-03-17T02:47:13.616Z,400.00
2023-03-17T02:48:13.564Z,400.00
2023-03-17T02:49:13.557Z,400.00
2023-03-17T02:50:13.551Z,400.00
2023-03-17T02:51:13.522Z,400.00
2023-03-17T02:52:13.497Z,400.00
2023-03-17T02:53:13.500Z,400.00
2023-03-17T02:54:13.942Z,400.00
2023-03-17T02:55:13.466Z,400.00
2023-03-17T02:56:13.441Z,400.00
2023-03-17T02:57:13.424Z,400.00
2023-03-17T02:58:13.408Z,400.00
2023-03-17T02:59:13.422Z,400.00
2023-03-17T03:00:13.375Z,400.00
2023-03-17T03:01:13.415Z,400.00
2023-03-17T03:02:13.367Z,400.00
2023-03-17T03:03:13.349Z,400.00
2023-03-17T03:04:13.401Z,400.00
2023-03-17T03:05:13.316Z,400.00
2023-03-17T03:06:13.292Z,406.00
2023-03-17T03:07:13.292Z,429.00
2023-03-17T03:08:13.286Z,486.00
2023-03-17T03:09:13.294Z,479.00
2023-03-17T03:10:13.253Z,487.00
2023-03-17T03:11:13.272Z,449.00
2023-03-17T03:12:13.240Z,431.00
2023-03-17T03:13:13.231Z,430.00
2023-03-17T03:14:13.227Z,440.00
2023-03-17T03:15:16.954Z,412.00
2023-03-17T03:16:13.228Z,400.00
2023-03-17T03:17:13.180Z,420.00
2023-03-17T03:18:13.173Z,421.00
2023-03-17T03:19:13.141Z,400.00
2023-03-17T03:20:13.159Z,402.00
2023-03-17T03:21:13.182Z,400.00
2023-03-17T03:22:13.133Z,400.00
2023-03-17T03:23:13.120Z,400.00
2023-03-17T03:24:13.106Z,400.00
2023-03-17T03:25:13.099Z,400.00
2023-03-17T03:26:13.113Z,406.00
2023-03-17T03:27:13.112Z,415.00
2023-03-17T03:28:13.051Z,480.00
2023-03-17T03:29:13.056Z,498.00
2023-03-17T03:30:13.058Z,540.00
2023-03-17T03:31:13.059Z,539.00
2023-03-17T03:32:13.016Z,516.00
2023-03-17T03:33:13.026Z,527.00
2023-03-17T03:34:12.995Z,515.00
2023-03-17T03:35:12.993Z,520.00
2023-03-17T03:36:12.962Z,530.00
2023-03-17T03:37:12.973Z,500.00
2023-03-17T03:38:12.942Z,552.00
2023-03-17T03:39:14.424Z,534.00
2023-03-17T03:40:12.962Z,556.00
2023-03-17T03:41:12.919Z,556.00
2023-03-17T03:42:12.892Z,556.00
2023-03-17T03:43:22.471Z,536.00
2023-03-17T03:44:13.872Z,527.00
2023-03-17T03:45:12.864Z,558.00
2023-03-17T03:46:12.952Z,559.00
2023-03-17T03:47:12.830Z,556.00
2023-03-17T03:48:12.843Z,536.00
2023-03-17T03:49:12.800Z,550.00
2023-03-17T03:50:12.792Z,530.00
2023-03-17T03:51:12.814Z,505.00
2023-03-17T03:52:12.756Z,535.00
2023-03-17T03:53:12.742Z,532.00
2023-03-17T03:54:12.723Z,519.00
2023-03-17T03:55:12.782Z,538.00
2023-03-17T03:56:12.681Z,560.00
2023-03-17T03:57:12.685Z,552.00
2023-03-17T03:58:12.650Z,586.00
2023-03-17T03:59:12.650Z,604.00
2023-03-17T04:00:12.652Z,625.00
2023-03-17T04:01:12.625Z,632.00
2023-03-17T04:02:12.587Z,649.00
2023-03-17T04:03:12.694Z,656.00
2023-03-17T04:04:12.555Z,656.00
2023-03-17T04:05:12.570Z,660.00
2023-03-17T04:06:12.527Z,657.00
2023-03-17T04:07:12.523Z,667.00
2023-03-17T04:08:12.504Z,693.00
2023-03-17T04:09:12.480Z,761.00
2023-03-17T04:10:12.512Z,912.00
2023-03-17T04:11:12.432Z,1048.00
2023-03-17T04:12:12.417Z,1127.00
2023-03-17T04:13:12.409Z,1078.00
2023-03-17T04:14:12.365Z,1089.00
2023-03-17T04:15:12.371Z,1096.00
2023-03-17T04:16:12.394Z,1117.00
2023-03-17T04:17:12.343Z,1120.00
2023-03-17T04:18:12.328Z,1142.00
2023-03-17T04:19:12.414Z,1124.00
2023-03-17T04:20:12.285Z,1153.00
2023-03-17T04:21:12.271Z,1124.00
2023-03-17T04:22:12.240Z,1126.00
2023-03-17T04:23:12.217Z,1159.00
2023-03-17T04:24:12.213Z,1204.00
2023-03-17T04:25:12.233Z,1306.00
2023-03-17T04:26:12.484Z,1446.00
2023-03-17T04:27:12.155Z,1525.00
2023-03-17T04:28:12.157Z,1488.00
2023-03-17T04:29:12.122Z,1521.00
2023-03-17T04:30:12.106Z,1572.00
2023-03-17T04:31:12.277Z,1598.00
2023-03-17T04:32:12.086Z,1601.00
2023-03-17T04:33:12.083Z,1600.00
2023-03-17T04:34:12.054Z,1604.00
2023-03-17T04:35:12.058Z,1612.00
2023-03-17T04:36:12.044Z,1617.00
2023-03-17T04:37:12.004Z,1656.00
2023-03-17T04:38:12.002Z,1718.00
2023-03-17T04:39:11.958Z,1721.00
2023-03-17T04:40:11.936Z,1725.00
2023-03-17T04:41:11.943Z,1732.00
2023-03-17T04:42:11.897Z,1750.00
2023-03-17T04:43:11.958Z,1790.00
2023-03-17T04:44:11.870Z,1779.00
2023-03-17T04:45:11.874Z,1794.00
2023-03-17T04:46:11.950Z,1795.00
2023-03-17T04:47:11.807Z,1798.00
2023-03-17T04:48:11.792Z,1806.00
2023-03-17T04:49:11.778Z,1827.00
2023-03-17T04:50:11.797Z,1858.00
2023-03-17T04:51:12.046Z,1861.00
2023-03-17T04:52:11.712Z,1838.00
2023-03-17T04:53:11.703Z,1855.00
2023-03-17T04:54:11.678Z,1855.00
2023-03-17T04:55:11.648Z,1855.00
2023-03-17T04:56:11.628Z,1863.00
2023-03-17T04:57:11.620Z,1882.00
2023-03-17T04:58:15.506Z,1902.00
2023-03-17T04:59:12.616Z,1857.00
2023-03-17T05:00:11.569Z,1865.00
2023-03-17T05:01:11.650Z,1881.00
2023-03-17T05:02:11.546Z,1858.00
2023-03-17T05:03:26.087Z,1870.00
2023-03-17T05:04:16.739Z,1859.00
2023-03-17T05:05:12.501Z,1859.00
2023-03-17T05:06:11.522Z,1876.00
2023-03-17T05:07:11.467Z,1911.00
2023-03-17T05:08:11.469Z,1945.00
2023-03-17T05:09:11.462Z,1990.00
2023-03-17T05:10:11.432Z,2040.00
2023-03-17T05:11:11.413Z,2027.00
2023-03-17T05:12:11.404Z,2029.00
2023-03-17T05:13:11.382Z,2034.00
2023-03-17T05:14:11.345Z,2037.00
2023-03-17T05:15:11.348Z,2058.00
2023-03-17T05:16:11.403Z,2048.00
2023-03-17T05:17:11.306Z,2029.00
2023-03-17T05:18:11.276Z,2029.00
2023-03-17T05:19:11.276Z,2035.00
2023-03-17T05:20:11.262Z,2029.00
2023-03-17T06:48:09.767Z,1441.00
2023-03-17T06:49:09.886Z,1449.00
2023-03-17T06:50:09.797Z,1542.00
2023-03-17T06:51:09.779Z,1523.00
2023-03-17T06:52:09.670Z,1518.00
2023-03-17T06:53:09.647Z,1525.00
2023-03-17T06:55:09.628Z,1587.00
2023-03-17T06:56:19.995Z,1587.00
2023-03-17T06:58:09.594Z,1580.00
2023-03-17T06:59:09.567Z,1589.00
2023-03-17T07:00:09.514Z,1604.00
2023-03-17T07:01:09.560Z,1592.00
2023-03-17T07:02:09.573Z,1650.00
2023-03-17T07:03:09.498Z,1651.00
2023-03-17T07:04:09.523Z,1622.00
2023-03-17T07:05:09.455Z,1651.00
2023-03-17T07:06:09.422Z,1630.00
2023-03-17T07:07:09.390Z,1613.00
2023-03-17T07:08:09.429Z,1650.00
2023-03-17T07:09:09.351Z,1644.00
2023-03-17T07:10:09.357Z,1603.00
2023-03-17T07:11:09.371Z,1655.00
2023-03-17T07:12:09.327Z,1586.00
2023-03-17T07:13:09.369Z,1588.00
2023-03-17T07:14:09.446Z,1572.00
2023-03-17T07:15:09.315Z,1535.00
2023-03-17T07:16:09.326Z,1503.00
2023-03-17T07:17:09.228Z,1492.00
2023-03-17T07:18:09.244Z,1525.00
2023-03-17T07:19:09.271Z,1464.00
2023-03-17T07:20:09.166Z,1485.00
2023-03-17T07:21:09.162Z,1531.00
2023-03-17T07:22:09.196Z,1475.00
2023-03-17T07:23:09.129Z,1526.00
2023-03-17T07:24:09.110Z,1554.00
2023-03-17T07:25:09.127Z,1518.00
2023-03-17T07:26:09.084Z,1529.00
2023-03-17T07:27:09.195Z,1578.00
2023-03-17T07:28:09.082Z,1537.00
2023-03-17T07:29:09.956Z,1523.00
2023-03-17T07:30:09.940Z,1532.00
2023-03-17T07:31:10.033Z,1525.00
2023-03-17T07:32:09.000Z,1555.00
2023-03-17T07:33:09.980Z,1590.00
2023-03-17T07:34:09.535Z,1660.00
2023-03-17T07:35:09.191Z,1597.00
2023-03-17T07:37:09.024Z,1593.00
2023-03-17T07:38:08.888Z,1602.00
2023-03-17T07:39:11.477Z,1608.00
2023-03-17T07:40:08.842Z,1594.00
2023-03-17T07:41:08.804Z,1601.00
2023-03-17T07:42:09.463Z,1629.00
2023-03-17T07:43:08.783Z,1663.00
2023-03-17T07:44:08.709Z,1689.00
2023-03-17T07:45:08.854Z,1697.00
2023-03-17T07:46:08.800Z,1706.00
2023-03-17T07:47:08.645Z,1692.00
2023-03-17T07:48:08.645Z,1739.00
2023-03-17T07:49:08.923Z,1680.00
2023-03-17T07:50:08.596Z,1775.00
2023-03-17T07:51:08.603Z,1770.00
2023-03-17T07:52:08.639Z,1757.00
2023-03-17T07:53:08.555Z,1771.00
2023-03-17T07:54:08.516Z,1781.00
2023-03-17T07:55:08.556Z,1767.00
2023-03-17T07:56:08.568Z,1836.00
2023-03-17T07:57:08.445Z,1817.00
2023-03-17T07:58:08.441Z,1799.00
2023-03-17T07:59:08.381Z,1807.00
2023-03-17T08:00:08.476Z,1813.00
2023-03-17T08:01:08.365Z,1870.00
2023-03-17T08:02:08.410Z,1799.00
2023-03-17T08:03:10.619Z,1811.00
2023-03-17T08:04:08.367Z,1782.00
2023-03-17T08:05:08.242Z,1770.00
2023-03-17T08:06:08.237Z,1827.00
2023-03-17T08:07:08.243Z,1779.00
2023-03-17T08:08:08.168Z,1759.00
2023-03-17T08:09:08.967Z,1826.00
2023-03-17T08:10:08.175Z,1768.00
2023-03-17T08:11:08.097Z,1779.00
2023-03-17T08:12:08.120Z,1802.00
2023-03-17T08:13:08.047Z,1747.00
2023-03-17T08:14:08.040Z,1803.00
2023-03-17T08:15:07.979Z,1837.00
2023-03-17T08:16:08.002Z,1805.00
2023-03-17T08:17:08.095Z,1787.00
2023-03-17T08:18:08.061Z,1797.00
2023-03-17T08:19:08.486Z,1791.00
2023-03-17T08:20:07.900Z,1833.00
2023-03-17T08:21:08.193Z,1718.00
2023-03-17T08:22:07.792Z,1738.00
2023-03-17T08:23:07.755Z,1814.00
2023-03-17T08:24:07.895Z,1849.00
2023-03-17T08:25:07.930Z,1815.00
2023-03-17T08:26:07.748Z,1828.00
2023-03-17T08:27:08.456Z,1875.00
2023-03-17T08:41:07.753Z,1690.00
2023-03-17T09:48:06.084Z,2372.00
2023-03-17T09:49:05.973Z,2391.00
2023-03-17T09:50:05.127Z,2397.00
2023-03-17T09:51:05.023Z,2400.00
2023-03-17T09:52:04.868Z,2402.00
2023-03-17T09:53:04.915Z,2405.00
2023-03-17T09:54:04.787Z,2406.00
2023-03-17T09:55:04.750Z,2416.00
2023-03-17T09:56:04.764Z,2444.00
2023-03-17T09:57:04.734Z,2429.00
2023-03-17T09:58:04.635Z,2444.00
2023-03-17T09:59:04.602Z,2439.00
2023-03-17T10:00:04.556Z,2462.00
2023-03-17T10:01:04.527Z,2458.00
2023-03-17T10:02:05.650Z,2455.00
2023-03-17T10:03:04.449Z,2456.00
2023-03-17T10:04:04.427Z,2430.00
2023-03-17T10:05:04.422Z,2474.00
2023-03-17T10:06:04.365Z,2458.00
2023-03-17T10:07:04.388Z,2458.00
2023-03-17T10:08:04.382Z,2444.00
2023-03-17T10:09:04.265Z,2443.00
2023-03-17T10:10:04.254Z,2456.00
2023-03-17T10:11:04.212Z,2441.00
2023-03-17T10:12:04.173Z,2462.00
2023-03-17T10:13:04.163Z,2413.00
2023-03-17T10:15:04.059Z,2425.00
2023-03-17T10:16:04.063Z,2420.00
2023-03-17T10:17:04.029Z,2391.00
2023-03-17T10:18:04.005Z,2379.00
2023-03-17T10:19:03.954Z,2405.00
2023-03-17T10:20:03.873Z,2407.00
2023-03-17T10:21:03.845Z,2408.00
2023-03-17T10:22:03.813Z,2429.00
2023-03-17T10:23:03.832Z,2401.00
2023-03-17T10:24:03.746Z,2434.00
2023-03-17T10:25:03.989Z,2453.00
2023-03-17T10:26:03.716Z,2465.00
2023-03-17T10:27:03.646Z,2489.00
2023-03-17T10:28:03.641Z,2426.00
2023-03-17T10:29:03.582Z,2431.00
2023-03-17T10:31:03.667Z,2443.00
2023-03-17T10:32:03.561Z,2421.00
2023-03-17T10:33:03.559Z,2408.00
2023-03-17T10:34:03.430Z,2421.00
2023-03-17T10:35:03.348Z,2455.00
2023-03-17T10:36:03.357Z,2449.00
2023-03-17T10:37:03.285Z,2429.00
2023-03-17T10:38:14.064Z,2364.00
2023-03-17T10:39:04.212Z,2355.00
2023-03-17T10:40:03.211Z,2313.00
2023-03-17T10:41:03.240Z,2303.00
2023-03-17T10:42:03.125Z,2219.00
2023-03-17T10:43:03.088Z,2175.00
2023-03-17T10:44:03.061Z,2229.00
2023-03-17T10:45:03.031Z,2199.00
2023-03-17T10:46:02.999Z,2179.00
2023-03-17T10:47:03.076Z,2130.00
2023-03-17T10:48:02.964Z,2057.00
2023-03-17T10:49:02.900Z,2013.00
2023-03-17T10:50:02.875Z,1950.00
2023-03-17T10:51:02.820Z,1925.00
2023-03-17T10:52:02.901Z,1940.00
2023-03-17T10:53:02.786Z,1910.00
2023-03-17T10:54:02.731Z,1860.00
2023-03-17T10:55:03.507Z,1847.00
2023-03-17T10:56:02.692Z,1854.00
2023-03-17T10:57:02.696Z,1792.00
2023-03-17T10:58:02.642Z,1826.00
2023-03-17T10:59:02.661Z,1812.00
2023-03-17T11:00:02.608Z,1753.00
2023-03-17T11:01:02.573Z,1759.00
2023-03-17T11:02:02.540Z,1700.00
2023-03-17T11:03:02.511Z,1741.00
2023-03-17T11:04:02.613Z,1764.00
2023-03-17T11:05:02.444Z,1749.00
2023-03-17T11:06:02.421Z,1784.00
2023-03-17T11:07:02.484Z,1747.00
2023-03-17T11:08:02.383Z,1717.00
2023-03-17T11:09:03.140Z,1719.00
2023-03-17T11:10:03.064Z,1770.00
2023-03-17T11:11:02.255Z,1859.00
2023-03-17T11:12:02.274Z,1902.00
2023-03-17T11:13:02.288Z,1901.00
2023-03-17T11:14:02.253Z,1938.00
2023-03-17T11:15:02.150Z,1969.00
2023-03-17T11:16:02.319Z,1984.00
2023-03-17T11:17:03.014Z,1995.00
2023-03-17T11:18:02.108Z,2043.00
2023-03-17T11:19:02.064Z,2074.00
2023-03-17T11:20:02.031Z,2097.00
2023-03-17T11:21:02.051Z,2093.00
2023-03-17T11:22:01.976Z,2122.00
2023-03-17T11:23:02.023Z,2138.00
2023-03-17T11:24:01.941Z,2169.00
2023-03-17T11:25:01.962Z,2176.00
2023-03-17T11:26:01.870Z,2193.00
2023-03-17T11:27:01.856Z,2211.00
2023-03-17T11:28:01.901Z,2227.00
2023-03-17T11:29:01.796Z,2236.00
2023-03-17T11:30:01.794Z,2236.00
2023-03-17T11:31:01.847Z,2256.00
2023-03-17T11:32:01.791Z,2275.00
2023-03-17T11:33:01.760Z,2297.00
2023-03-17T11:34:01.670Z,2288.00
2023-03-17T11:35:01.687Z,2294.00
2023-03-17T11:36:01.649Z,2248.00
2023-03-17T11:37:01.608Z,2267.00
2023-03-17T11:38:01.604Z,2268.00
2023-03-17T11:39:01.545Z,2272.00
2023-03-17T11:40:01.522Z,2277.00
2023-03-17T11:41:01.508Z,2299.00
2023-03-17T11:42:01.533Z,2324.00
2023-03-17T11:43:01.477Z,2345.00
2023-03-17T11:44:01.524Z,2334.00
2023-03-17T11:45:02.174Z,2377.00
2023-03-17T11:46:02.569Z,2353.00
2023-03-17T11:47:01.368Z,2355.00
2023-03-17T11:48:01.312Z,2356.00
2023-03-17T11:49:01.326Z,2369.00
2023-03-17T11:50:01.249Z,2381.00
2023-03-17T11:51:01.290Z,2376.00
2023-03-17T11:52:01.210Z,2387.00
2023-03-17T11:53:01.256Z,2395.00
2023-03-17T11:54:01.283Z,2407.00
2023-03-17T11:55:01.139Z,2396.00
2023-03-17T11:56:01.120Z,2402.00
2023-03-17T11:57:01.090Z,2414.00
2023-03-17T11:58:03.031Z,2401.00
2023-03-17T11:59:01.026Z,2402.00
2023-03-17T12:00:01.078Z,2404.00
2023-03-17T12:01:01.022Z,2406.00
2023-03-17T12:02:00.935Z,2406.00
2023-03-17T12:03:00.929Z,2415.00
2023-03-17T12:04:00.977Z,2383.00
2023-03-17T12:05:01.114Z,2398.00
2023-03-17T12:06:00.854Z,2388.00
2023-03-17T12:07:00.812Z,2351.00
2023-03-17T12:08:00.782Z,2309.00
2023-03-17T12:09:00.748Z,2311.00
2023-03-17T12:10:00.716Z,2300.00
2023-03-17T12:11:00.681Z,2300.00
2023-03-17T12:12:00.649Z,2184.00
2023-03-17T12:13:00.630Z,2143.00
2023-03-17T12:14:00.586Z,2143.00
2023-03-17T12:15:00.562Z,2068.00
2023-03-17T12:16:00.603Z,2106.00
2023-03-17T12:17:00.456Z,2073.00
2023-03-17T12:18:00.426Z,2066.00
2023-03-17T12:19:00.564Z,2061.00
2023-03-17T12:20:00.396Z,2036.00
2023-03-17T12:21:00.297Z,1986.00
2023-03-17T12:22:01.075Z,1906.00
2023-03-17T12:23:00.298Z,1947.00
2023-03-17T12:24:00.261Z,1900.00
2023-03-17T12:25:00.197Z,1900.00
2023-03-17T12:26:00.199Z,1894.00
2023-03-17T12:27:01.085Z,1889.00
2023-03-17T12:28:00.134Z,1869.00
2023-03-17T12:29:00.138Z,1850.00
2023-03-17T12:30:00.320Z,1826.00
2023-03-17T12:31:00.081Z,1874.00
2023-03-17T12:31:59.998Z,1905.00
2023-03-17T12:33:00.002Z,1924.00
2023-03-17T12:33:59.940Z,1955.00
2023-03-17T12:34:59.909Z,2010.00
2023-03-17T12:35:59.876Z,2024.00
2023-03-17T12:36:59.845Z,2040.00
2023-03-17T12:38:00.476Z,2024.00
2023-03-17T12:38:59.819Z,2048.00
2023-03-17T12:39:59.785Z,2064.00
2023-03-17T12:40:59.754Z,2076.00
2023-03-17T12:41:59.788Z,2077.00
2023-03-17T12:42:59.735Z,2081.00
2023-03-17T12:43:59.706Z,2085.00
2023-03-17T12:44:59.685Z,2109.00
2023-03-17T12:45:59.669Z,2121.00
2023-03-17T12:46:59.621Z,2116.00
2023-03-17T12:47:59.586Z,2125.00
2023-03-17T12:49:00.982Z,2126.00
2023-03-17T12:49:59.560Z,2130.00
2023-03-17T12:50:59.510Z,2138.00
2023-03-17T12:51:59.528Z,2163.00
2023-03-17T12:52:59.526Z,2143.00
2023-03-17T12:53:59.482Z,2187.00
2023-03-17T12:54:59.526Z,2202.00
2023-03-17T12:55:59.397Z,2190.00
2023-03-17T12:56:59.485Z,2207.00
2023-03-17T12:57:59.362Z,2219.00
2023-03-17T12:58:59.420Z,2227.00
2023-03-17T12:59:59.326Z,2224.00
2023-03-17T13:00:59.289Z,2181.00
2023-03-17T13:02:00.139Z,2118.00
2023-03-17T13:03:00.070Z,2113.00
2023-03-17T13:03:59.210Z,2082.00
2023-03-17T13:04:59.228Z,2116.00
2023-03-17T13:05:59.201Z,2012.00
2023-03-17T13:06:59.175Z,1940.00
2023-03-17T13:07:59.163Z,1966.00
2023-03-17T13:08:59.119Z,1920.00
2023-03-17T13:09:59.097Z,1876.00
2023-03-17T13:10:59.073Z,1874.00
2023-03-17T13:11:59.041Z,1909.00
2023-03-17T13:12:59.003Z,1856.00
2023-03-17T13:13:58.972Z,1909.00
2023-03-17T13:14:58.975Z,1966.00
2023-03-17T13:15:59.016Z,2004.00
2023-03-17T13:16:58.889Z,2017.00
2023-03-17T13:17:59.556Z,2023.00
2023-03-17T13:18:58.849Z,2036.00
2023-03-17T13:19:58.848Z,1990.00
2023-03-17T13:20:58.813Z,1981.00
2023-03-17T13:21:58.782Z,1978.00
2023-03-17T13:22:58.771Z,1979.00
2023-03-17T13:23:58.748Z,1985.00
2023-03-17T13:24:58.709Z,1995.00
2023-03-17T13:25:58.760Z,1957.00
2023-03-17T13:26:58.653Z,1980.00
2023-03-17T13:27:58.638Z,1951.00
2023-03-17T13:28:58.597Z,1954.00
2023-03-17T13:29:58.621Z,1925.00
2023-03-17T13:30:58.622Z,1911.00
2023-03-17T13:31:58.558Z,1896.00
2023-03-17T13:32:58.531Z,1916.00
2023-03-17T13:33:58.465Z,1933.00
2023-03-17T13:34:58.464Z,1957.00
2023-03-17T13:35:58.466Z,1947.00
2023-03-17T13:36:58.424Z,1955.00
2023-03-17T13:37:58.394Z,1957.00
2023-03-17T13:39:17.778Z,1964.00
2023-03-17T13:39:59.354Z,1958.00
2023-03-17T13:40:58.349Z,1966.00
2023-03-17T13:42:01.156Z,1982.00
2023-03-17T13:42:59.346Z,1959.00
2023-03-17T13:43:58.274Z,1979.00
2023-03-17T13:44:58.289Z,1998.00
2023-03-17T13:45:58.239Z,2051.00
2023-03-17T13:46:58.233Z,2099.00
2023-03-17T13:47:58.177Z,2126.00
2023-03-17T13:48:58.177Z,2133.00
2023-03-17T13:49:58.157Z,2134.00
2023-03-17T13:50:59.069Z,2135.00
2023-03-17T13:52:00.424Z,2136.00
2023-03-17T13:52:58.103Z,2153.00
2023-03-17T13:53:58.068Z,2176.00
2023-03-17T13:54:58.118Z,2190.00
2023-03-17T13:55:58.072Z,2197.00
2023-03-17T13:56:58.032Z,2197.00
2023-03-17T13:57:58.028Z,2211.00
2023-03-17T13:58:57.969Z,2229.00
2023-03-17T13:59:57.988Z,2247.00
2023-03-17T14:00:57.955Z,2243.00
2023-03-17T14:01:57.908Z,2258.00
2023-03-17T14:02:57.900Z,2249.00
2023-03-17T14:03:57.907Z,2247.00
2023-03-17T14:04:57.905Z,2264.00
2023-03-17T14:05:57.864Z,2264.00
2023-03-17T14:06:57.868Z,2282.00
2023-03-17T14:07:57.835Z,2260.00
2023-03-17T14:08:57.795Z,2273.00
2023-03-17T14:09:57.774Z,2281.00
2023-03-17T14:10:57.803Z,2271.00
2023-03-17T14:11:57.751Z,2277.00
2023-03-17T14:12:57.721Z,2277.00
2023-03-17T14:13:57.712Z,2274.00
2023-03-17T14:14:57.697Z,2281.00
2023-03-17T14:15:57.744Z,2292.00
2023-03-17T14:16:57.668Z,2295.00
2023-03-17T14:17:57.656Z,2290.00
2023-03-17T14:18:57.640Z,2281.00
2023-03-17T14:19:57.601Z,2299.00
2023-03-17T14:20:57.609Z,2305.00
2023-03-17T14:21:57.569Z,2290.00
2023-03-17T14:22:57.538Z,2288.00
2023-03-17T14:23:57.507Z,2289.00
2023-03-17T14:24:57.535Z,2291.00
2023-03-17T14:25:57.495Z,2289.00
2023-03-17T14:26:57.468Z,2294.00
2023-03-17T14:27:57.460Z,2304.00
2023-03-17T14:28:58.123Z,2312.00
2023-03-17T14:29:57.405Z,2321.00
2023-03-17T14:30:57.435Z,2320.00
2023-03-17T14:31:57.397Z,2317.00
2023-03-17T14:32:57.359Z,2329.00
2023-03-17T14:33:57.344Z,2332.00
2023-03-17T14:34:57.376Z,2337.00
2023-03-17T14:35:57.328Z,2322.00
2023-03-17T14:36:57.296Z,2319.00
2023-03-17T14:37:57.244Z,2327.00
2023-03-17T14:38:57.210Z,2326.00
2023-03-17T14:39:57.209Z,2331.00
2023-03-17T14:40:57.215Z,2323.00
2023-03-17T14:41:57.144Z,2328.00
2023-03-17T14:42:57.151Z,2333.00
2023-03-17T14:43:57.120Z,2344.00
2023-03-17T14:44:57.043Z,2335.00
2023-03-17T14:45:57.040Z,2325.00
2023-03-17T14:46:57.018Z,2329.00
2023-03-17T14:47:57.634Z,2331.00
2023-03-17T14:48:56.969Z,2320.00
2023-03-17T14:49:56.931Z,2312.00
2023-03-17T14:50:56.935Z,2319.00
2023-03-17T14:51:56.889Z,2327.00
2023-03-17T14:52:56.930Z,2326.00
2023-03-17T14:53:56.798Z,2323.00
2023-03-17T14:54:56.817Z,2324.00
2023-03-17T14:55:56.786Z,2311.00
2023-03-17T14:56:56.727Z,2321.00
2023-03-17T14:57:56.694Z,2333.00
2023-03-17T14:58:56.736Z,2335.00
2023-03-17T14:59:56.700Z,2325.00
2023-03-17T15:00:56.696Z,2340.00
2023-03-17T15:01:56.682Z,2331.00
2023-03-17T15:02:56.577Z,2322.00
2023-03-17T15:03:56.590Z,2322.00
2023-03-17T15:04:56.568Z,2308.00